This is the latest recevied weather packets stored in our database for station/object Ad4UU. If no packets are shown the sender has not sent any weather packets the latest 10 day(s).
| Time | Temp. | Humidity | Pressure | Rain* | Wind** | Luminosity | Snow |
|---|---|---|---|---|---|---|---|
| 1777219831 | 27.22° C | 68% | 1013.1 hPa | 0 mm | - | - | - |
| 1777218933 | 27.22° C | 70% | 1013.2 hPa | 0 mm | - | - | - |
| 1777218033 | 27.22° C | 70% | 1013.2 hPa | 0 mm | - | - | - |
| 1777215650 | 26.11° C | 74% | 1013.2 hPa | 0 mm | - | - | - |
| 1777213848 | 25° C | 82% | 1013.3 hPa | 0 mm | - | - | - |
| 1777212633 | 23.89° C | 85% | 1013.5 hPa | 0 mm | - | - | - |
| 1777211731 | 23.33° C | 87% | 1013.4 hPa | 0 mm | - | - | - |
| 1777211431 | 23.33° C | 88% | 1013.3 hPa | 0 mm | - | - | - |
| 1777211141 | 23.33° C | 88% | 1013.3 hPa | 0 mm | - | - | - |
| 1777210250 | 23.89° C | 87% | 1013.3 hPa | 0 mm | - | - | - |
| 1777208731 | 23.33° C | 88% | 1013.3 hPa | 0 mm | - | - | - |
| 1777205746 | 21.11° C | 92% | 1013.1 hPa | 0 mm | - | - | - |
| 1777205131 | 20.56° C | 92% | 1013.1 hPa | 0 mm | - | - | - |
| 1777204231 | 19.44° C | 94% | 1012.9 hPa | 0 mm | - | - | - |
| 1777203333 | 18.89° C | 95% | 1012.7 hPa | 0 mm | - | - | - |
| 1777202735 | 17.78° C | 95% | 1012.4 hPa | 0 mm | - | - | - |
| 1777200383 | 16.67° C | 95% | 1012 hPa | 0 mm | - | - | - |
| 1777199733 | 16.67° C | 95% | 1012.1 hPa | 0 mm | - | - | - |
| 1777199130 | 16.67° C | 95% | 1011.8 hPa | 0 mm | - | - | - |
| 1777198830 | 16.67° C | 95% | 1011.7 hPa | 0 mm | - | - | - |
| 1777197658 | 17.22° C | 94% | 1011.7 hPa | 0 mm | - | - | - |
| 1777196132 | 17.22° C | 94% | 1011.7 hPa | 0 mm | - | - | - |
| 1777194051 | 17.22° C | 95% | 1011.7 hPa | 0 mm | - | - | - |
| 1777190450 | 17.22° C | 91% | 1011.9 hPa | 0 mm | - | - | - |
| 1777189231 | 17.78° C | 90% | 1012 hPa | 0 mm | - | - | - |
* Rain latest hour (hover to see other rain measurements)
** Current wind speed in m/s (hover to see current wind gust speed)